createdAt,value
2022-10-22T00:00:58.258Z,32.60
2022-10-22T00:03:26.156Z,31.60
2022-10-22T00:05:54.068Z,34.90
2022-10-22T00:08:22.052Z,34.33
2022-10-22T00:10:50.140Z,33.60
2022-10-22T00:13:18.509Z,35.80
2022-10-22T00:15:47.778Z,34.37
2022-10-22T00:18:16.004Z,35.30
2022-10-22T00:20:44.069Z,35.43
2022-10-22T00:23:11.991Z,37.73
2022-10-22T00:25:39.880Z,40.80
2022-10-22T00:28:07.840Z,35.73
2022-10-22T00:30:35.744Z,38.67
2022-10-22T00:33:05.180Z,28.83
2022-10-22T00:35:33.828Z,31.53
2022-10-22T00:38:01.764Z,38.17
2022-10-22T00:40:29.704Z,33.63
2022-10-22T00:42:57.591Z,34.03
2022-10-22T00:45:26.563Z,32.03
2022-10-22T00:47:58.830Z,35.63
2022-10-22T00:50:32.504Z,32.87
2022-10-22T00:53:02.431Z,34.87
2022-10-22T00:55:31.631Z,34.03
2022-10-22T00:58:00.907Z,34.50
2022-10-22T01:00:29.527Z,34.63
2022-10-22T01:02:58.350Z,32.17
2022-10-22T01:05:30.309Z,31.10
2022-10-22T01:07:58.403Z,36.57
2022-10-22T01:10:36.919Z,30.80
2022-10-22T01:13:17.562Z,39.03
2022-10-22T01:15:51.262Z,32.47
2022-10-22T01:18:25.056Z,30.27
2022-10-22T01:21:05.015Z,35.03
2022-10-22T01:24:09.627Z,38.57
2022-10-22T01:26:48.615Z,38.07
2022-10-22T01:29:22.360Z,37.00
2022-10-22T01:31:57.744Z,42.23
2022-10-22T01:34:26.913Z,38.73
2022-10-22T01:36:56.991Z,37.97
2022-10-22T01:39:26.695Z,45.47
2022-10-22T01:41:56.083Z,37.40
2022-10-22T01:44:27.472Z,35.07
2022-10-22T01:47:03.854Z,42.57
2022-10-22T01:49:41.023Z,41.83
2022-10-22T01:52:22.174Z,42.77
2022-10-22T01:55:00.806Z,42.63
2022-10-22T01:57:47.803Z,38.93
2022-10-22T02:00:19.895Z,39.73
2022-10-22T02:02:57.398Z,40.43
2022-10-22T02:05:30.927Z,35.27
2022-10-22T02:08:02.854Z,46.77
2022-10-22T02:10:31.942Z,40.23
2022-10-22T02:13:02.186Z,37.67
2022-10-22T02:15:36.455Z,36.37
2022-10-22T02:18:06.578Z,47.23
2022-10-22T02:20:36.542Z,41.37
2022-10-22T02:23:05.626Z,41.63
2022-10-22T02:25:36.845Z,46.80
2022-10-22T02:28:17.309Z,40.93
2022-10-22T02:30:53.955Z,39.63
2022-10-22T02:33:25.318Z,42.83
2022-10-22T02:35:54.190Z,33.00
2022-10-22T02:38:23.869Z,43.33
2022-10-22T02:40:51.837Z,38.03
2022-10-22T02:43:20.083Z,41.23
2022-10-22T02:45:49.391Z,42.73
2022-10-22T02:48:17.327Z,47.40
2022-10-22T02:50:45.226Z,42.30
2022-10-22T02:53:13.105Z,41.90
2022-10-22T02:55:40.998Z,40.13
2022-10-22T02:58:08.880Z,42.13
2022-10-22T03:00:36.995Z,43.73
2022-10-22T03:03:06.361Z,41.73
2022-10-22T03:05:34.274Z,43.20
2022-10-22T03:08:02.236Z,40.23
2022-10-22T03:10:30.153Z,46.87
2022-10-22T03:12:58.145Z,46.27
2022-10-22T03:17:58.832Z,43.93
2022-10-22T03:20:28.406Z,45.23
2022-10-22T03:22:57.373Z,51.87
2022-10-22T03:25:27.931Z,43.37
2022-10-22T03:27:58.493Z,48.37
2022-10-22T03:30:26.373Z,43.47
2022-10-22T03:32:54.268Z,41.20
2022-10-22T03:35:22.262Z,48.10
2022-10-22T03:37:52.025Z,38.00
2022-10-22T03:40:20.813Z,42.63
2022-10-22T03:42:48.868Z,44.33
2022-10-22T03:45:16.813Z,51.17
2022-10-22T03:47:45.052Z,45.90
2022-10-22T03:50:13.284Z,45.63
2022-10-22T03:52:41.517Z,44.40
2022-10-22T03:55:11.504Z,50.37
2022-10-22T03:57:39.756Z,46.47
2022-10-22T04:00:09.904Z,48.60
2022-10-22T04:02:37.892Z,52.07
2022-10-22T04:05:06.516Z,57.80
2022-10-22T04:07:34.508Z,59.63
2022-10-22T04:10:02.412Z,63.83
2022-10-22T04:12:31.660Z,63.70
2022-10-22T04:14:59.600Z,54.17
2022-10-22T04:17:27.499Z,71.47
2022-10-22T04:19:55.440Z,48.40
2022-10-22T04:22:23.328Z,65.43
2022-10-22T04:27:23.995Z,73.77
2022-10-22T04:29:53.586Z,77.77
2022-10-22T04:32:21.536Z,63.57
2022-10-22T04:34:49.434Z,67.17
2022-10-22T04:37:17.307Z,85.67
2022-10-22T04:39:45.187Z,55.67
2022-10-22T04:42:13.065Z,64.37
2022-10-22T04:44:40.967Z,73.77
2022-10-22T04:47:10.213Z,88.80
2022-10-22T04:49:38.097Z,64.23
2022-10-22T04:52:06.228Z,86.70
2022-10-22T04:54:34.159Z,78.23
2022-10-22T04:57:02.059Z,82.27
2022-10-22T04:59:29.995Z,94.10
2022-10-22T05:01:58.076Z,81.67
2022-10-22T05:04:27.360Z,107.80
2022-10-22T05:06:55.259Z,103.70
2022-10-22T05:09:23.282Z,102.40
2022-10-22T05:11:53.220Z,92.87
2022-10-22T05:14:23.584Z,107.07
2022-10-22T05:16:52.371Z,136.97
2022-10-22T05:19:23.920Z,86.60
2022-10-22T05:21:53.631Z,117.97
2022-10-22T05:24:21.801Z,86.90
2022-10-22T05:26:50.875Z,155.40
2022-10-22T05:29:19.091Z,122.43
2022-10-22T05:31:47.068Z,107.93
2022-10-22T05:34:15.500Z,199.37
2022-10-22T05:36:43.638Z,176.97
2022-10-22T05:39:12.992Z,179.17
2022-10-22T05:41:41.260Z,75.17
2022-10-22T05:44:09.282Z,66.73
2022-10-22T05:46:37.681Z,119.50
2022-10-22T05:49:08.131Z,151.37
2022-10-22T05:51:37.658Z,155.17
2022-10-22T05:54:10.966Z,103.53
2022-10-22T05:56:40.212Z,158.20
2022-10-22T05:59:08.097Z,167.43
2022-10-22T06:01:36.408Z,124.80
2022-10-22T06:04:07.884Z,136.80
2022-10-22T06:06:38.172Z,120.93
2022-10-22T06:09:12.679Z,126.77
2022-10-22T06:11:42.046Z,123.23
2022-10-22T06:14:11.311Z,142.57
2022-10-22T06:16:39.470Z,129.13
2022-10-22T06:19:07.608Z,159.87
2022-10-22T06:21:35.496Z,134.70
2022-10-22T06:24:03.401Z,142.03
2022-10-22T06:26:31.756Z,105.23
2022-10-22T06:29:01.276Z,122.37
2022-10-22T06:31:29.972Z,119.57
2022-10-22T06:33:58.345Z,100.20
2022-10-22T06:36:26.241Z,100.53
2022-10-22T06:38:55.226Z,129.37
2022-10-22T06:41:27.073Z,209.93
2022-10-22T06:43:57.897Z,178.00
2022-10-22T06:46:27.932Z,212.77
2022-10-22T06:48:57.489Z,151.33
2022-10-22T06:51:26.232Z,143.43
2022-10-22T06:53:55.504Z,152.13
2022-10-22T06:56:24.631Z,135.23
2022-10-22T06:58:54.010Z,179.93
2022-10-22T07:01:24.108Z,163.73
2022-10-22T07:03:53.859Z,147.10
2022-10-22T07:06:23.059Z,191.13
2022-10-22T07:08:51.374Z,157.53
2022-10-22T07:11:21.441Z,262.00
2022-10-22T07:13:50.231Z,176.87
2022-10-22T07:16:19.283Z,135.53
2022-10-22T07:18:48.383Z,128.57
2022-10-22T07:21:20.325Z,155.97
2022-10-22T07:23:48.663Z,133.73
2022-10-22T07:26:20.310Z,130.83
2022-10-22T07:28:48.833Z,139.10
2022-10-22T07:31:19.741Z,103.60
2022-10-22T07:33:47.835Z,97.57
2022-10-22T07:36:18.515Z,132.90
2022-10-22T07:38:46.991Z,122.00
2022-10-22T07:41:15.580Z,152.67
2022-10-22T07:43:43.571Z,125.33
2022-10-22T07:46:11.483Z,124.87
2022-10-22T07:48:39.558Z,102.70
2022-10-22T07:51:07.988Z,83.23
2022-10-22T07:53:37.602Z,90.23
2022-10-22T07:56:06.056Z,120.20
2022-10-22T07:58:34.089Z,83.87
2022-10-22T08:01:05.689Z,127.97
2022-10-22T08:03:34.179Z,117.50
2022-10-22T08:06:02.770Z,99.33
2022-10-22T08:08:31.046Z,99.43
2022-10-22T08:11:02.503Z,119.77
2022-10-22T08:13:31.564Z,81.80
2022-10-22T08:16:00.081Z,80.13
2022-10-22T08:18:28.693Z,85.17
2022-10-22T08:20:56.782Z,72.40
2022-10-22T08:23:27.733Z,61.50
2022-10-22T08:25:57.131Z,71.40
2022-10-22T08:28:28.738Z,67.33
2022-10-22T08:30:57.067Z,62.40
2022-10-22T08:33:25.182Z,57.00
2022-10-22T08:35:53.810Z,56.40
2022-10-22T08:38:22.122Z,77.87
2022-10-22T08:40:53.283Z,56.63
2022-10-22T08:43:57.096Z,59.97
2022-10-22T08:46:40.494Z,62.57
2022-10-22T08:49:17.124Z,59.27
2022-10-22T08:51:45.123Z,58.10
2022-10-22T08:54:26.089Z,56.43
2022-10-22T08:57:06.057Z,54.50
2022-10-22T08:59:41.846Z,59.40
2022-10-22T09:02:24.705Z,51.13
2022-10-22T09:04:59.933Z,58.23
2022-10-22T09:07:27.837Z,57.90
2022-10-22T09:09:58.938Z,52.90
2022-10-22T09:12:29.089Z,48.87
2022-10-22T09:14:58.388Z,51.53
2022-10-22T09:17:35.677Z,52.60
2022-10-22T09:20:15.911Z,50.43
2022-10-22T09:22:50.991Z,51.50
2022-10-22T09:25:22.246Z,46.13
2022-10-22T09:27:52.526Z,48.30
2022-10-22T09:30:24.284Z,57.57
2022-10-22T09:32:55.772Z,40.20
2022-10-22T09:35:25.252Z,52.00
2022-10-22T09:37:55.145Z,41.77
2022-10-22T09:40:23.593Z,46.83
2022-10-22T09:42:51.528Z,38.47
2022-10-22T09:45:25.268Z,43.67
2022-10-22T09:48:10.682Z,44.67
2022-10-22T09:50:44.360Z,39.63
2022-10-22T09:53:18.348Z,41.07
2022-10-22T09:55:52.009Z,42.80
2022-10-22T09:58:20.836Z,42.50
2022-10-22T10:00:55.929Z,42.00
2022-10-22T10:03:26.530Z,39.00
2022-10-22T10:05:56.340Z,42.20
2022-10-22T10:08:26.246Z,48.60
2022-10-22T10:10:58.957Z,47.30
2022-10-22T10:13:53.238Z,47.50
2022-10-22T10:16:34.029Z,46.83
2022-10-22T10:19:18.821Z,44.83
2022-10-22T10:21:56.201Z,48.03
2022-10-22T10:24:31.545Z,42.13
2022-10-22T10:27:03.773Z,48.90
2022-10-22T10:29:46.090Z,51.13
2022-10-22T10:32:42.453Z,44.53
2022-10-22T10:35:21.336Z,46.80
2022-10-22T10:38:03.426Z,39.57
2022-10-22T10:40:41.204Z,43.23
2022-10-22T10:43:16.294Z,43.90
2022-10-22T10:45:55.811Z,45.47
2022-10-22T10:48:37.965Z,44.70
2022-10-22T10:51:15.101Z,40.30
2022-10-22T10:53:56.085Z,44.93
2022-10-22T10:56:36.784Z,53.63
2022-10-22T10:59:16.381Z,48.87
2022-10-22T11:01:54.940Z,46.47
2022-10-22T11:04:54.076Z,51.50
2022-10-22T11:07:34.590Z,55.50
2022-10-22T11:10:10.895Z,55.47
2022-10-22T11:12:43.437Z,53.77
2022-10-22T11:15:29.137Z,57.43
2022-10-22T11:18:03.932Z,61.87
2022-10-22T11:20:42.092Z,48.70
2022-10-22T11:23:20.772Z,53.60
2022-10-22T11:25:51.289Z,53.40
2022-10-22T11:28:24.772Z,49.67
2022-10-22T11:30:57.900Z,50.57
2022-10-22T11:33:30.344Z,58.07
2022-10-22T11:36:02.718Z,45.83
2022-10-22T11:38:32.866Z,51.20
2022-10-22T11:41:06.679Z,62.23
2022-10-22T11:43:36.505Z,52.70
2022-10-22T11:46:27.704Z,58.00
2022-10-22T11:49:17.391Z,54.40
2022-10-22T11:51:47.980Z,61.50
2022-10-22T11:54:42.678Z,50.43
2022-10-22T11:57:20.784Z,56.63
2022-10-22T11:59:54.467Z,58.10
2022-10-22T12:02:42.032Z,55.37
2022-10-22T12:05:33.563Z,54.00
2022-10-22T12:08:22.943Z,55.73
2022-10-22T12:11:05.948Z,54.40
2022-10-22T12:13:51.791Z,57.97
2022-10-22T12:16:32.159Z,52.37
2022-10-22T12:19:15.580Z,47.33
2022-10-22T12:21:45.332Z,49.70
2022-10-22T12:24:18.187Z,49.97
2022-10-22T12:26:47.056Z,67.10
2022-10-22T12:29:17.367Z,64.27
2022-10-22T12:31:47.176Z,48.97
2022-10-22T12:34:16.512Z,62.63
2022-10-22T12:36:45.115Z,54.70
2022-10-22T12:39:17.164Z,50.13
2022-10-22T12:41:45.423Z,52.17
2022-10-22T12:44:15.550Z,46.17
2022-10-22T12:46:45.254Z,52.67
2022-10-22T12:49:18.958Z,41.67
2022-10-22T12:51:48.234Z,49.87
2022-10-22T12:54:25.983Z,45.23
2022-10-22T12:56:55.776Z,37.67
2022-10-22T12:59:25.808Z,42.30
2022-10-22T13:01:54.514Z,39.60
2022-10-22T13:04:38.195Z,37.33
2022-10-22T13:07:22.251Z,35.17
2022-10-22T13:10:00.506Z,33.67
2022-10-22T13:12:35.634Z,40.60
2022-10-22T13:15:23.042Z,32.50
2022-10-22T13:17:51.223Z,36.83
2022-10-22T13:20:21.914Z,34.13
2022-10-22T13:23:00.246Z,34.57
2022-10-22T13:25:31.550Z,31.93
2022-10-22T13:28:02.440Z,37.33
2022-10-22T13:30:31.819Z,25.07
2022-10-22T13:33:01.519Z,34.73
2022-10-22T13:35:32.128Z,32.30
2022-10-22T13:38:00.777Z,36.07
2022-10-22T13:40:30.425Z,29.50
2022-10-22T13:42:58.343Z,28.13
2022-10-22T13:45:26.272Z,28.13
2022-10-22T13:47:55.433Z,42.27
2022-10-22T13:50:23.436Z,29.90
2022-10-22T13:52:53.810Z,29.00
2022-10-22T13:55:25.659Z,25.70
2022-10-22T13:57:57.289Z,27.53
2022-10-22T14:00:26.209Z,24.37
2022-10-22T14:02:58.145Z,27.57
2022-10-22T14:05:26.394Z,20.63
2022-10-22T14:07:54.462Z,26.07
2022-10-22T14:10:24.287Z,24.00
2022-10-22T14:12:53.937Z,22.27
2022-10-22T14:15:24.802Z,24.30
2022-10-22T14:17:57.177Z,23.07
2022-10-22T14:20:27.624Z,25.63
2022-10-22T14:22:56.051Z,24.30
2022-10-22T14:25:25.596Z,22.63
2022-10-22T14:27:54.881Z,22.47
2022-10-22T14:30:24.809Z,25.23
2022-10-22T14:32:53.384Z,24.53
2022-10-22T14:35:23.414Z,32.47
2022-10-22T14:37:51.679Z,19.40
2022-10-22T14:40:21.569Z,19.80
2022-10-22T14:42:50.181Z,21.33
2022-10-22T14:45:22.041Z,18.30
2022-10-22T14:47:50.352Z,23.03
2022-10-22T14:50:18.436Z,23.33
2022-10-22T14:52:46.540Z,20.37
2022-10-22T14:55:16.249Z,21.77
2022-10-22T14:57:44.734Z,19.70
2022-10-22T15:00:15.183Z,23.10
2022-10-22T15:02:45.006Z,17.70
2022-10-22T15:05:13.365Z,15.30
2022-10-22T15:07:41.632Z,15.10
2022-10-22T15:10:10.724Z,21.13
2022-10-22T15:12:38.672Z,14.90
2022-10-22T15:15:07.949Z,20.37
2022-10-22T15:17:35.904Z,14.73
2022-10-22T15:20:06.207Z,17.23
2022-10-22T15:22:36.063Z,17.57
2022-10-22T15:25:09.510Z,19.50
2022-10-22T15:27:37.719Z,16.13
2022-10-22T15:30:06.978Z,16.03
2022-10-22T15:32:34.917Z,16.17
2022-10-22T15:35:03.248Z,19.03
2022-10-22T15:37:32.544Z,16.07
2022-10-22T15:40:00.685Z,29.67
2022-10-22T15:42:28.587Z,21.20
2022-10-22T15:44:59.958Z,21.57
2022-10-22T15:47:29.732Z,22.23
2022-10-22T15:49:58.010Z,18.47
2022-10-22T15:52:26.085Z,23.30
2022-10-22T15:54:55.477Z,47.20
2022-10-22T15:57:23.436Z,27.00
2022-10-22T15:59:51.953Z,21.40
2022-10-22T16:02:19.855Z,18.97
2022-10-22T16:04:47.961Z,20.57
2022-10-22T16:07:21.046Z,23.97
2022-10-22T16:09:52.005Z,20.40
2022-10-22T16:12:21.231Z,22.30
2022-10-22T16:14:51.193Z,19.33
2022-10-22T16:17:19.551Z,22.43
2022-10-22T16:19:49.071Z,21.23
2022-10-22T16:22:17.093Z,24.23
2022-10-22T16:24:45.037Z,24.80
2022-10-22T16:27:12.982Z,25.27
2022-10-22T16:29:42.232Z,25.90
2022-10-22T16:32:10.174Z,31.63
2022-10-22T16:34:38.147Z,24.67
2022-10-22T16:37:10.278Z,23.80
2022-10-22T16:39:38.707Z,26.90
2022-10-22T16:42:07.024Z,28.93
2022-10-22T16:44:34.951Z,29.53
2022-10-22T16:47:04.386Z,33.33
2022-10-22T16:49:32.362Z,44.47
2022-10-22T16:52:00.263Z,36.93
2022-10-22T16:54:28.279Z,32.00
2022-10-22T16:56:56.154Z,39.43
2022-10-22T16:59:24.062Z,31.10
2022-10-22T17:01:52.089Z,37.10
2022-10-22T17:04:22.474Z,30.97
2022-10-22T17:06:50.382Z,37.60
2022-10-22T17:09:18.354Z,34.07
2022-10-22T17:11:46.412Z,46.73
2022-10-22T17:14:14.322Z,38.00
2022-10-22T17:16:42.250Z,34.10
2022-10-22T17:19:14.043Z,37.40
2022-10-22T17:21:43.783Z,35.00
2022-10-22T17:24:11.975Z,40.53
2022-10-22T17:26:39.877Z,34.03
2022-10-22T17:29:08.258Z,32.60
2022-10-22T17:31:37.976Z,46.40
2022-10-22T17:34:07.318Z,39.10
2022-10-22T17:36:36.291Z,36.27
2022-10-22T17:39:08.609Z,34.87
2022-10-22T17:41:37.959Z,37.03
2022-10-22T17:44:09.010Z,42.27
2022-10-22T17:46:37.321Z,39.87
2022-10-22T17:49:07.926Z,47.43
2022-10-22T17:51:35.961Z,45.53
2022-10-22T17:54:07.504Z,60.87
2022-10-22T17:56:40.050Z,59.73
2022-10-22T17:59:08.210Z,51.40
2022-10-22T18:01:39.413Z,66.53
2022-10-22T18:04:09.231Z,45.33
2022-10-22T18:06:37.598Z,40.63
2022-10-22T18:09:07.793Z,41.83
2022-10-22T18:11:37.356Z,39.27
2022-10-22T18:14:05.586Z,45.00
2022-10-22T18:16:33.821Z,49.03
2022-10-22T18:19:01.941Z,44.57
2022-10-22T18:21:31.249Z,42.83
2022-10-22T18:24:00.146Z,49.40
2022-10-22T18:26:29.697Z,48.13
2022-10-22T18:28:59.155Z,50.77
2022-10-22T18:31:30.305Z,51.43
2022-10-22T18:33:58.434Z,49.10
2022-10-22T18:36:28.240Z,53.17
2022-10-22T18:38:58.057Z,54.13
2022-10-22T18:41:26.362Z,56.47
2022-10-22T18:43:57.024Z,57.50
2022-10-22T18:46:25.185Z,51.30
2022-10-22T18:48:54.467Z,62.60
2022-10-22T18:51:22.929Z,56.93
2022-10-22T18:54:04.576Z,51.43
2022-10-22T18:56:40.652Z,57.43
2022-10-22T18:59:16.119Z,60.93
2022-10-22T19:01:44.113Z,60.23
2022-10-22T19:04:14.004Z,76.53
2022-10-22T19:06:45.683Z,65.23
2022-10-22T19:09:14.765Z,65.57
2022-10-22T19:11:43.617Z,83.57
2022-10-22T19:14:14.676Z,69.70
2022-10-22T19:16:42.879Z,70.07
2022-10-22T19:19:12.345Z,58.90
2022-10-22T19:21:40.236Z,64.93
2022-10-22T19:24:11.288Z,74.07
2022-10-22T19:26:39.802Z,65.43
2022-10-22T19:29:07.823Z,64.43
2022-10-22T19:31:37.870Z,62.87
2022-10-22T19:34:06.150Z,66.00
2022-10-22T19:36:34.534Z,61.43
2022-10-22T19:39:03.841Z,71.97
2022-10-22T19:41:32.945Z,79.90
2022-10-22T19:44:01.773Z,61.60
2022-10-22T19:46:32.481Z,62.70
2022-10-22T19:49:03.822Z,65.10
2022-10-22T19:51:34.502Z,69.27
2022-10-22T19:54:06.146Z,68.63
2022-10-22T19:56:35.393Z,79.60
2022-10-22T19:59:04.265Z,61.67
2022-10-22T20:01:32.725Z,61.13
2022-10-22T20:04:02.474Z,71.87
2022-10-22T20:06:30.899Z,69.13
2022-10-22T20:08:59.229Z,71.73
2022-10-22T20:11:29.845Z,68.57
2022-10-22T20:13:57.867Z,63.47
2022-10-22T20:16:28.545Z,58.47
2022-10-22T20:18:59.935Z,67.73
2022-10-22T20:21:31.078Z,62.93
2022-10-22T20:23:59.357Z,61.97
2022-10-22T20:26:28.889Z,57.43
2022-10-22T20:28:57.552Z,53.73
2022-10-22T20:31:28.605Z,62.47
2022-10-22T20:33:58.484Z,63.73
2022-10-22T20:36:27.118Z,62.20
2022-10-22T20:39:00.614Z,78.50
2022-10-22T20:41:28.781Z,65.57
2022-10-22T20:43:56.793Z,71.23
2022-10-22T20:46:26.652Z,94.60
2022-10-22T20:48:56.456Z,82.93
2022-10-22T20:51:24.376Z,54.77
2022-10-22T20:53:52.344Z,57.27
2022-10-22T20:56:21.776Z,58.30
2022-10-22T20:58:50.273Z,64.23
2022-10-22T21:01:21.811Z,70.90
2022-10-22T21:03:50.178Z,58.67
2022-10-22T21:06:20.945Z,57.83
2022-10-22T21:08:49.060Z,65.10
2022-10-22T21:11:17.069Z,60.13
2022-10-22T21:13:46.463Z,57.27
2022-10-22T21:16:15.686Z,52.60
2022-10-22T21:18:43.655Z,72.50
2022-10-22T21:21:11.714Z,59.60
2022-10-22T21:23:43.095Z,58.07
2022-10-22T21:26:11.238Z,55.77
2022-10-22T21:28:39.957Z,48.57
2022-10-22T21:31:14.258Z,54.40
2022-10-22T21:33:42.191Z,54.40
2022-10-22T21:36:10.587Z,53.23
2022-10-22T21:38:39.331Z,57.07
2022-10-22T21:41:08.239Z,46.50
2022-10-22T21:43:38.578Z,51.43
2022-10-22T21:46:08.412Z,47.90
2022-10-22T21:48:38.719Z,47.97
2022-10-22T21:51:08.223Z,46.37
2022-10-22T21:53:36.452Z,50.63
2022-10-22T21:56:04.616Z,49.57
2022-10-22T21:58:34.427Z,51.23
2022-10-22T22:01:02.640Z,46.60
2022-10-22T22:03:30.864Z,51.93
2022-10-22T22:06:01.184Z,47.27
2022-10-22T22:08:29.467Z,48.77
2022-10-22T22:11:03.168Z,54.17
2022-10-22T22:13:31.235Z,40.50
2022-10-22T22:16:02.985Z,44.07
2022-10-22T22:18:31.119Z,47.87
2022-10-22T22:21:01.352Z,40.07
2022-10-22T22:23:29.351Z,46.87
2022-10-22T22:26:00.935Z,43.23
2022-10-22T22:28:31.145Z,43.50
2022-10-22T22:30:59.783Z,45.30
2022-10-22T22:33:28.179Z,44.60
2022-10-22T22:36:00.570Z,42.87
2022-10-22T22:38:28.515Z,45.87
2022-10-22T22:40:56.459Z,49.13
2022-10-22T22:43:24.320Z,43.90
2022-10-22T22:46:00.543Z,46.77
2022-10-22T22:48:28.783Z,39.07
2022-10-22T22:50:56.754Z,44.53
2022-10-22T22:53:26.025Z,37.53
2022-10-22T22:56:04.410Z,41.80
2022-10-22T22:58:32.402Z,40.27
2022-10-22T23:01:15.208Z,36.80
2022-10-22T23:03:44.367Z,38.13
2022-10-22T23:06:13.104Z,39.23
2022-10-22T23:08:43.330Z,44.00
2022-10-22T23:11:13.450Z,48.57
2022-10-22T23:13:42.414Z,47.03
2022-10-22T23:16:14.351Z,49.43
2022-10-22T23:18:42.480Z,51.33
2022-10-22T23:21:14.496Z,44.00
2022-10-22T23:23:45.846Z,46.30
2022-10-22T23:26:14.954Z,43.33
2022-10-22T23:28:42.886Z,44.30
2022-10-22T23:31:13.468Z,47.47
2022-10-22T23:33:41.453Z,48.83
2022-10-22T23:36:09.542Z,45.50
2022-10-22T23:38:39.034Z,41.07
2022-10-22T23:41:08.809Z,43.07
2022-10-22T23:43:37.795Z,44.30
2022-10-22T23:46:06.438Z,34.50
2022-10-22T23:48:34.869Z,42.37
2022-10-22T23:51:06.431Z,36.67
2022-10-22T23:53:34.446Z,45.20
2022-10-22T23:56:05.889Z,40.90
2022-10-22T23:58:35.981Z,41.27
